createdAt,value
2022-11-14T00:00:18.714Z,9.08
2022-11-14T00:05:40.018Z,9.04
2022-11-14T00:10:59.986Z,8.92
2022-11-14T00:16:16.686Z,8.81
2022-11-14T00:21:35.227Z,8.77
2022-11-14T00:26:51.494Z,9.02
2022-11-14T00:32:09.130Z,9.16
2022-11-14T00:37:27.475Z,9.14
2022-11-14T00:42:48.991Z,9.16
2022-11-14T00:48:09.074Z,9.21
2022-11-14T00:53:26.419Z,9.11
2022-11-14T00:58:44.259Z,9.36
2022-11-14T01:04:01.073Z,9.02
2022-11-14T01:09:20.157Z,8.97
2022-11-14T01:14:37.993Z,8.41
2022-11-14T01:19:58.494Z,8.94
2022-11-14T01:25:16.361Z,8.90
2022-11-14T01:30:34.429Z,9.07
2022-11-14T01:35:54.644Z,9.36
2022-11-14T01:41:15.151Z,9.39
2022-11-14T01:46:31.972Z,9.36
2022-11-14T01:52:03.041Z,9.36
2022-11-14T01:57:24.263Z,9.40
2022-11-14T02:02:41.521Z,9.44
2022-11-14T02:07:57.292Z,9.48
2022-11-14T02:13:28.456Z,9.09
2022-11-14T02:18:48.282Z,9.23
2022-11-14T02:24:05.897Z,9.21
2022-11-14T02:29:23.020Z,9.28
2022-11-14T02:34:41.236Z,8.90
2022-11-14T02:39:58.144Z,9.20
2022-11-14T02:45:15.416Z,9.16
2022-11-14T02:50:31.070Z,9.40
2022-11-14T02:55:50.264Z,9.43
2022-11-14T03:01:20.369Z,9.35
2022-11-14T03:06:42.450Z,9.33
2022-11-14T03:11:59.463Z,9.46
2022-11-14T03:17:19.507Z,9.35
2022-11-14T03:22:36.453Z,9.46
2022-11-14T03:27:54.780Z,9.48
2022-11-14T03:33:12.272Z,9.46
2022-11-14T03:38:29.604Z,9.51
2022-11-14T03:43:48.747Z,9.38
2022-11-14T03:49:07.116Z,9.53
2022-11-14T03:54:27.766Z,9.08
2022-11-14T03:59:46.440Z,9.09
2022-11-14T04:05:04.179Z,9.32
2022-11-14T04:10:20.094Z,9.50
2022-11-14T04:15:46.119Z,9.38
2022-11-14T04:21:02.608Z,9.09
2022-11-14T04:26:21.383Z,8.91
2022-11-14T04:31:38.963Z,8.63
2022-11-14T04:36:55.167Z,9.03
2022-11-14T04:42:12.302Z,8.90
2022-11-14T04:47:27.980Z,8.57
2022-11-14T04:52:48.737Z,8.45
2022-11-14T04:58:07.469Z,8.27
2022-11-14T05:03:24.144Z,8.28
2022-11-14T05:08:41.258Z,8.33
2022-11-14T05:13:57.756Z,8.21
2022-11-14T05:19:23.847Z,8.17
2022-11-14T05:24:41.994Z,8.05
2022-11-14T05:29:59.051Z,8.13
2022-11-14T05:35:15.282Z,8.34
2022-11-14T05:40:32.122Z,8.64
2022-11-14T05:45:48.602Z,8.57
2022-11-14T05:51:06.637Z,8.21
2022-11-14T05:56:23.712Z,8.04
2022-11-14T06:01:40.473Z,7.96
2022-11-14T06:07:00.401Z,7.96
2022-11-14T06:12:16.569Z,7.68
2022-11-14T06:17:34.997Z,7.74
2022-11-14T06:22:54.275Z,7.66
2022-11-14T06:28:12.092Z,7.61
2022-11-14T06:33:30.492Z,7.51
2022-11-14T06:38:50.674Z,7.84
2022-11-14T06:44:08.685Z,7.62
2022-11-14T06:49:35.283Z,7.51
2022-11-14T06:54:58.536Z,7.80
2022-11-14T07:00:18.771Z,7.62
2022-11-14T07:05:39.724Z,7.76
2022-11-14T07:11:01.484Z,7.65
2022-11-14T07:16:20.786Z,7.34
2022-11-14T07:21:37.567Z,7.44
2022-11-14T07:26:53.904Z,7.49
2022-11-14T07:32:13.437Z,7.67
2022-11-14T07:37:36.808Z,7.59
2022-11-14T07:42:59.415Z,7.75
2022-11-14T07:48:17.047Z,7.68
2022-11-14T07:53:35.446Z,7.74
2022-11-14T07:58:52.935Z,8.18
2022-11-14T08:04:09.713Z,8.16
2022-11-14T08:09:27.011Z,8.41
2022-11-14T08:14:44.417Z,8.68
2022-11-14T08:20:04.716Z,8.70
2022-11-14T08:25:25.886Z,8.72
2022-11-14T08:30:44.697Z,8.87
2022-11-14T08:36:01.211Z,8.78
2022-11-14T08:41:18.535Z,9.25
2022-11-14T08:46:37.525Z,9.56
2022-11-14T08:51:54.284Z,9.67
2022-11-14T08:57:15.423Z,9.89
2022-11-14T09:02:32.259Z,9.28
2022-11-14T09:07:52.210Z,9.52
2022-11-14T09:13:09.947Z,9.99
2022-11-14T09:18:27.248Z,10.04
2022-11-14T09:23:46.470Z,9.92
2022-11-14T09:29:08.935Z,10.29
2022-11-14T09:34:25.209Z,10.24
2022-11-14T09:39:41.770Z,10.37
2022-11-14T09:44:58.507Z,10.24
2022-11-14T09:50:23.101Z,10.44
2022-11-14T09:55:43.536Z,11.07
2022-11-14T10:01:12.006Z,10.84
2022-11-14T10:06:36.382Z,11.10
2022-11-14T10:11:53.101Z,11.11
2022-11-14T10:17:15.538Z,10.72
2022-11-14T10:22:50.678Z,10.62
2022-11-14T10:28:24.154Z,10.05
2022-11-14T10:33:50.150Z,10.23
2022-11-14T10:39:09.302Z,11.01
2022-11-14T10:44:31.194Z,11.51
2022-11-14T10:49:49.530Z,11.49
2022-11-14T10:55:15.875Z,11.06
2022-11-14T11:00:32.585Z,11.23
2022-11-14T11:05:52.208Z,10.95
2022-11-14T11:11:34.046Z,10.72
2022-11-14T11:16:52.329Z,10.27
2022-11-14T11:22:34.016Z,10.36
2022-11-14T11:28:05.513Z,10.40
2022-11-14T11:33:25.202Z,10.89
2022-11-14T11:38:42.097Z,11.45
2022-11-14T11:44:02.632Z,10.88
2022-11-14T11:49:38.890Z,10.80
2022-11-14T11:55:18.402Z,10.73
2022-11-14T12:00:35.538Z,10.69
2022-11-14T12:06:12.025Z,11.00
2022-11-14T12:11:32.126Z,11.38
2022-11-14T12:17:04.228Z,11.69
2022-11-14T12:22:27.603Z,11.20
2022-11-14T12:28:06.791Z,11.08
2022-11-14T12:33:27.808Z,10.76
2022-11-14T12:38:51.331Z,11.05
2022-11-14T12:44:32.843Z,11.02
2022-11-14T12:49:52.911Z,10.73
2022-11-14T12:55:37.325Z,10.77
2022-11-14T13:01:09.491Z,10.89
2022-11-14T13:06:27.811Z,10.79
2022-11-14T13:12:10.707Z,10.83
2022-11-14T13:17:51.586Z,10.74
2022-11-14T13:23:30.777Z,10.76
2022-11-14T13:28:50.595Z,11.38
2022-11-14T13:34:16.737Z,11.43
2022-11-14T13:39:53.711Z,11.68
2022-11-14T13:45:14.776Z,11.67
2022-11-14T13:50:37.167Z,11.53
2022-11-14T13:56:02.430Z,11.37
2022-11-14T14:01:27.787Z,11.13
2022-11-14T14:07:03.942Z,10.99
2022-11-14T14:12:43.276Z,10.83
2022-11-14T14:18:06.648Z,11.12
2022-11-14T14:23:32.065Z,10.63
2022-11-14T14:29:11.730Z,10.89
2022-11-14T14:34:29.698Z,11.12
2022-11-14T14:40:01.294Z,11.27
2022-11-14T14:45:19.321Z,11.33
2022-11-14T14:50:40.230Z,11.28
2022-11-14T14:56:09.681Z,10.88
2022-11-14T15:01:31.586Z,11.27
2022-11-14T15:06:48.399Z,11.04
2022-11-14T15:12:05.419Z,10.98
2022-11-14T15:18:58.256Z,11.27
2022-11-14T15:23:21.744Z,11.08
2022-11-14T15:30:14.188Z,11.27
2022-11-14T15:35:07.639Z,11.19
2022-11-14T15:40:24.284Z,11.11
2022-11-14T15:45:45.696Z,10.99
2022-11-14T15:51:09.421Z,11.14
2022-11-14T15:56:29.172Z,11.10
2022-11-14T16:01:49.085Z,11.08
2022-11-14T16:07:11.529Z,10.86
2022-11-14T16:12:32.442Z,11.01
2022-11-14T16:17:50.777Z,11.04
2022-11-14T16:23:06.459Z,11.00
2022-11-14T16:28:24.040Z,11.17
2022-11-14T16:33:44.935Z,11.08
2022-11-14T16:39:13.193Z,11.13
2022-11-14T16:44:31.237Z,10.84
2022-11-14T16:49:52.186Z,10.71
2022-11-14T16:55:12.542Z,10.74
2022-11-14T17:00:30.958Z,10.73
2022-11-14T17:05:50.733Z,10.45
2022-11-14T17:11:13.227Z,10.61
2022-11-14T17:16:30.020Z,10.69
2022-11-14T17:21:46.762Z,10.71
2022-11-14T17:27:07.831Z,10.69
2022-11-14T17:32:56.169Z,10.51
2022-11-14T17:38:28.593Z,10.83
2022-11-14T17:43:48.016Z,10.76
2022-11-14T17:49:11.689Z,10.77
2022-11-14T18:00:43.908Z,10.79
2022-11-14T18:06:28.448Z,10.68
2022-11-14T18:11:46.730Z,10.55
2022-11-14T18:17:12.730Z,10.54
2022-11-14T18:22:43.063Z,10.26
2022-11-14T18:34:13.498Z,10.44
2022-11-14T18:39:35.063Z,10.35
2022-11-14T18:45:26.305Z,10.14
2022-11-14T18:50:45.079Z,10.12
2022-11-14T18:56:08.531Z,10.40
2022-11-14T19:01:29.599Z,10.11
2022-11-14T19:06:47.145Z,10.23
2022-11-14T19:12:22.504Z,10.25
2022-11-14T19:17:39.599Z,10.25
2022-11-14T19:22:57.765Z,10.25
2022-11-14T19:28:13.539Z,10.00
2022-11-14T19:33:30.674Z,10.00
2022-11-14T19:38:49.743Z,9.99
2022-11-14T19:44:10.959Z,10.10
2022-11-14T19:49:30.679Z,10.00
2022-11-14T19:54:53.461Z,9.99
2022-11-14T20:00:09.493Z,9.96
2022-11-14T20:05:25.632Z,9.89
2022-11-14T20:10:55.843Z,9.94
2022-11-14T20:16:12.854Z,10.10
2022-11-14T20:21:29.948Z,9.96
2022-11-14T20:26:50.938Z,10.03
2022-11-14T20:32:15.790Z,10.00
2022-11-14T20:37:33.775Z,10.00
2022-11-14T20:42:56.823Z,10.15
2022-11-14T20:48:19.181Z,10.12
2022-11-14T20:53:40.778Z,10.16
2022-11-14T20:59:02.747Z,9.94
2022-11-14T21:04:35.069Z,9.76
2022-11-14T21:22:24.060Z,9.96
2022-11-14T21:28:06.067Z,9.94
2022-11-14T21:33:31.347Z,9.74
2022-11-14T21:38:49.576Z,9.39
2022-11-14T21:50:14.315Z,9.58
2022-11-14T21:55:35.401Z,9.77
2022-11-14T22:00:54.978Z,9.50
2022-11-14T22:06:13.407Z,9.57
2022-11-14T22:11:30.043Z,9.53
2022-11-14T22:16:52.909Z,9.40
2022-11-14T22:22:12.085Z,9.15
2022-11-14T22:27:33.503Z,8.93
2022-11-14T22:32:53.345Z,9.49
2022-11-14T22:38:16.074Z,9.58
2022-11-14T22:43:52.380Z,9.61
2022-11-14T22:49:19.756Z,9.85
2022-11-14T22:54:40.711Z,9.83
2022-11-14T23:00:04.587Z,9.63
2022-11-14T23:05:24.092Z,9.68
2022-11-14T23:10:47.081Z,9.13
2022-11-14T23:16:53.960Z,9.00
2022-11-14T23:22:12.828Z,9.56
2022-11-14T23:27:32.015Z,9.46
2022-11-14T23:32:48.812Z,9.54
2022-11-14T23:38:05.876Z,9.46
2022-11-14T23:43:24.246Z,9.77
2022-11-14T23:48:44.284Z,9.61
2022-11-14T23:54:05.589Z,9.42
2022-11-14T23:59:25.649Z,9.21
